Terminal Aerodrome Forecast
Issued by NWS Sterling, VA

Current Version | Previous Version | Text Only | Print | Product List | Glossary On
Versions: 1 2 3 4 5 6 7 8 9 10 11 12 13 14 15 16 17 18 19 20 21 22 23 24 25 26 27 28 29 30 31 32 33 34 35 36 37 38 39 40 41 42 43 44 45 46 47 48 49 50
000
FTUS41 KLWX 210914 AAE
TAFBWI
TAF AMD
KBWI 210914Z 2109/2212 VRB03KT 1/4SM FG OVC002
     FM211400 18004KT 1/2SM FG OVC003
     FM211500 18005KT P6SM BKN003
     FM211600 18006KT P6SM SCT008
     FM211700 19007KT P6SM SCT020
     FM220530 00000KT 1SM BR OVC003=

USA.gov is the U.S. government's official web portal to all federal, state and local government web resources and services.